createdAt,value
2023-04-23T00:02:01.073Z,26.25
2023-04-23T00:05:08.278Z,26.62
2023-04-23T00:08:14.936Z,23.70
2023-04-23T00:11:21.556Z,26.97
2023-04-23T00:14:29.537Z,28.62
2023-04-23T00:17:35.651Z,23.73
2023-04-23T00:20:42.783Z,29.82
2023-04-23T00:23:50.864Z,29.67
2023-04-23T00:26:56.358Z,26.95
2023-04-23T00:30:02.866Z,56.80
2023-04-23T00:33:09.484Z,47.67
2023-04-23T00:36:15.194Z,62.15
2023-04-23T00:39:22.388Z,45.28
2023-04-23T00:42:28.228Z,34.92
2023-04-23T00:45:33.065Z,35.63
2023-04-23T00:48:40.735Z,42.62
2023-04-23T00:51:46.815Z,41.48
2023-04-23T00:54:52.490Z,39.73
2023-04-23T00:57:58.902Z,41.35
2023-04-23T01:01:08.348Z,34.10
2023-04-23T01:04:16.185Z,33.73
2023-04-23T01:07:22.793Z,34.58
2023-04-23T01:10:28.250Z,32.13
2023-04-23T01:13:35.912Z,33.95
2023-04-23T01:16:46.027Z,31.77
2023-04-23T01:19:52.445Z,26.90
2023-04-23T01:22:58.570Z,28.62
2023-04-23T01:26:05.726Z,31.48
2023-04-23T01:29:11.703Z,31.62
2023-04-23T01:32:18.016Z,30.12
2023-04-23T01:35:25.447Z,31.23
2023-04-23T01:38:30.675Z,29.52
2023-04-23T01:41:37.434Z,28.15
2023-04-23T01:44:42.998Z,26.62
2023-04-23T01:47:51.486Z,28.30
2023-04-23T01:50:58.982Z,30.35
2023-04-23T01:54:05.537Z,28.02
2023-04-23T01:57:12.273Z,27.65
2023-04-23T02:00:24.206Z,26.62
2023-04-23T02:03:29.697Z,29.25
2023-04-23T02:06:35.807Z,23.75
2023-04-23T02:09:42.287Z,30.15
2023-04-23T02:12:49.388Z,30.05
2023-04-23T02:15:55.587Z,31.68
2023-04-23T02:19:02.753Z,23.12
2023-04-23T02:22:09.345Z,26.48
2023-04-23T02:25:14.944Z,24.57
2023-04-23T02:28:21.889Z,26.42
2023-04-23T02:31:28.678Z,22.75
2023-04-23T02:34:36.139Z,22.73
2023-04-23T02:37:44.365Z,25.55
2023-04-23T02:40:50.519Z,27.37
2023-04-23T02:43:56.828Z,22.67
2023-04-23T02:47:03.747Z,27.90
2023-04-23T02:50:13.036Z,23.30
2023-04-23T02:53:18.964Z,23.30
2023-04-23T02:56:24.208Z,27.90
2023-04-23T02:59:30.779Z,22.85
2023-04-23T03:02:36.900Z,25.70
2023-04-23T03:05:45.446Z,25.40
2023-04-23T03:08:51.712Z,23.18
2023-04-23T03:11:57.557Z,20.05
2023-04-23T03:15:02.608Z,21.50
2023-04-23T03:18:08.114Z,18.45
2023-04-23T03:21:13.377Z,23.38
2023-04-23T03:24:18.577Z,22.17
2023-04-23T03:27:23.937Z,18.65
2023-04-23T03:30:29.345Z,22.30
2023-04-23T03:33:35.202Z,26.50
2023-04-23T03:36:41.312Z,24.27
2023-04-23T03:39:47.295Z,29.00
2023-04-23T03:42:53.290Z,26.30
2023-04-23T03:45:59.924Z,35.15
2023-04-23T03:49:08.098Z,28.45
2023-04-23T03:52:15.174Z,44.93
2023-04-23T03:55:22.536Z,43.58
2023-04-23T03:58:28.142Z,34.13
2023-04-23T04:01:34.413Z,31.77
2023-04-23T04:04:40.667Z,30.88
2023-04-23T04:07:51.015Z,34.40
2023-04-23T04:10:57.415Z,38.28
2023-04-23T04:14:04.115Z,42.50
2023-04-23T04:17:09.498Z,36.28
2023-04-23T04:20:16.247Z,33.73
2023-04-23T04:23:21.828Z,31.73
2023-04-23T04:26:28.958Z,34.83
2023-04-23T04:29:34.946Z,29.92
2023-04-23T04:32:45.084Z,32.75
2023-04-23T04:35:52.616Z,30.72
2023-04-23T04:39:10.136Z,25.05
2023-04-23T04:42:16.219Z,24.07
2023-04-23T04:45:23.741Z,20.45
2023-04-23T04:48:30.353Z,22.65
2023-04-23T04:51:37.951Z,16.12
2023-04-23T04:54:43.623Z,17.65
2023-04-23T04:57:50.800Z,18.50
2023-04-23T05:01:00.090Z,17.45
2023-04-23T05:04:05.648Z,18.55
2023-04-23T05:07:12.895Z,22.62
2023-04-23T05:10:21.069Z,20.60
2023-04-23T05:13:28.184Z,23.15
2023-04-23T05:16:34.477Z,20.57
2023-04-23T05:19:40.322Z,18.85
2023-04-23T05:22:46.282Z,15.90
2023-04-23T05:25:54.730Z,19.70
2023-04-23T05:29:00.925Z,18.10
2023-04-23T05:32:06.520Z,15.83
2023-04-23T05:35:14.202Z,16.02
2023-04-23T05:38:20.500Z,20.60
2023-04-23T05:41:27.059Z,19.37
2023-04-23T05:44:33.750Z,17.77
2023-04-23T05:47:40.967Z,16.75
2023-04-23T05:50:46.826Z,19.85
2023-04-23T05:53:53.513Z,15.13
2023-04-23T05:56:58.891Z,12.82
2023-04-23T06:00:04.939Z,13.58
2023-04-23T06:03:14.901Z,13.40
2023-04-23T06:06:22.155Z,12.35
2023-04-23T06:09:28.767Z,13.85
2023-04-23T06:12:35.359Z,12.55
2023-04-23T06:15:41.307Z,9.93
2023-04-23T06:18:49.059Z,10.15
2023-04-23T06:21:54.431Z,10.25
2023-04-23T06:25:00.605Z,10.98
2023-04-23T06:28:08.318Z,13.28
2023-04-23T06:31:16.003Z,12.88
2023-04-23T06:34:22.196Z,12.53
2023-04-23T06:37:30.172Z,13.00
2023-04-23T06:40:36.883Z,11.05
2023-04-23T06:43:45.008Z,13.48
2023-04-23T06:46:58.532Z,11.63
2023-04-23T06:50:05.403Z,10.72
2023-04-23T06:53:11.662Z,9.10
2023-04-23T06:56:18.352Z,8.85
2023-04-23T06:59:24.984Z,9.28
2023-04-23T07:02:32.123Z,8.53
2023-04-23T07:05:37.605Z,9.48
2023-04-23T07:08:43.398Z,7.67
2023-04-23T07:11:49.330Z,8.30
2023-04-23T07:14:55.837Z,7.80
2023-04-23T07:18:03.057Z,10.43
2023-04-23T07:21:10.307Z,11.25
2023-04-23T07:24:16.899Z,10.15
2023-04-23T07:27:22.958Z,8.75
2023-04-23T07:30:30.146Z,12.18
2023-04-23T07:33:37.518Z,8.20
2023-04-23T07:36:44.235Z,6.75
2023-04-23T07:39:49.655Z,11.88
2023-04-23T07:42:58.721Z,6.95
2023-04-23T07:46:05.366Z,8.65
2023-04-23T07:49:11.807Z,6.33
2023-04-23T07:52:16.630Z,9.15
2023-04-23T07:55:24.385Z,11.43
2023-04-23T07:58:30.184Z,13.75
2023-04-23T08:01:36.079Z,8.03
2023-04-23T08:04:43.063Z,5.80
2023-04-23T08:07:49.323Z,4.92
2023-04-23T08:10:55.231Z,7.03
2023-04-23T08:14:01.611Z,8.78
2023-04-23T08:17:07.551Z,7.53
2023-04-23T08:20:15.180Z,6.35
2023-04-23T08:23:23.531Z,4.72
2023-04-23T08:26:30.992Z,7.28
2023-04-23T08:29:38.132Z,8.08
2023-04-23T08:32:46.028Z,5.70
2023-04-23T08:35:53.080Z,7.67
2023-04-23T08:38:58.920Z,8.70
2023-04-23T08:42:09.027Z,7.05
2023-04-23T08:45:15.346Z,5.97
2023-04-23T08:48:27.561Z,5.58
2023-04-23T08:51:33.818Z,5.83
2023-04-23T08:54:43.532Z,6.97
2023-04-23T08:57:50.412Z,7.80
2023-04-23T09:00:57.752Z,7.10
2023-04-23T09:04:03.339Z,5.20
2023-04-23T09:07:13.054Z,4.60
2023-04-23T09:10:20.343Z,5.78
2023-04-23T09:13:27.437Z,6.30
2023-04-23T09:16:33.301Z,9.58
2023-04-23T09:19:40.078Z,5.20
2023-04-23T09:22:59.525Z,9.40
2023-04-23T09:26:09.844Z,6.58
2023-04-23T09:29:17.569Z,9.90
2023-04-23T09:32:25.040Z,6.30
2023-04-23T09:35:33.130Z,7.83
2023-04-23T09:38:38.942Z,11.43
2023-04-23T09:41:45.817Z,5.75
2023-04-23T09:44:53.093Z,5.28
2023-04-23T09:48:05.882Z,7.00
2023-04-23T09:51:10.601Z,10.25
2023-04-23T09:54:18.724Z,6.65
2023-04-23T09:57:26.094Z,7.70
2023-04-23T10:00:38.064Z,15.32
2023-04-23T10:03:43.580Z,7.47
2023-04-23T10:07:02.372Z,9.83
2023-04-23T10:09:52.487Z,8.73
2023-04-23T10:12:53.476Z,5.85
2023-04-23T10:15:35.429Z,7.08
2023-04-23T10:18:29.967Z,5.97
2023-04-23T10:21:50.035Z,4.55
2023-04-23T10:24:44.312Z,9.00
2023-04-23T10:27:54.679Z,7.65
2023-04-23T10:31:02.877Z,9.80
2023-04-23T10:34:10.689Z,8.73
2023-04-23T10:37:16.551Z,7.55
2023-04-23T10:40:28.411Z,11.12
2023-04-23T10:43:34.678Z,14.33
2023-04-23T10:46:46.557Z,7.97
2023-04-23T10:49:53.711Z,6.25
2023-04-23T10:53:05.284Z,8.25
2023-04-23T10:56:22.649Z,5.10
2023-04-23T10:59:36.850Z,4.90
2023-04-23T11:02:43.497Z,6.65
2023-04-23T11:05:50.970Z,4.90
2023-04-23T11:09:09.903Z,5.35
2023-04-23T11:12:16.780Z,9.05
2023-04-23T11:15:31.312Z,9.68
2023-04-23T11:18:39.019Z,4.78
2023-04-23T11:22:21.444Z,5.80
2023-04-23T11:25:39.204Z,6.80
2023-04-23T11:28:45.087Z,6.22
2023-04-23T11:32:01.433Z,7.37
2023-04-23T11:35:01.650Z,8.93
2023-04-23T11:38:07.929Z,7.17
2023-04-23T11:41:15.091Z,4.78
2023-04-23T11:44:20.319Z,4.65
2023-04-23T11:47:28.539Z,6.62
2023-04-23T11:50:39.948Z,9.38
2023-04-23T11:53:46.172Z,18.48
2023-04-23T11:56:52.760Z,12.70
2023-04-23T11:59:58.757Z,12.68
2023-04-23T12:03:16.624Z,7.55
2023-04-23T12:06:22.199Z,12.78
2023-04-23T12:09:30.174Z,8.08
2023-04-23T12:12:36.281Z,6.60
2023-04-23T12:15:42.870Z,6.70
2023-04-23T12:18:54.967Z,4.87
2023-04-23T12:22:14.899Z,6.83
2023-04-23T12:25:21.124Z,4.97
2023-04-23T12:28:28.507Z,5.53
2023-04-23T12:31:40.465Z,4.12
2023-04-23T12:34:48.546Z,7.20
2023-04-23T12:37:55.967Z,3.40
2023-04-23T12:41:02.381Z,4.45
2023-04-23T12:44:08.139Z,6.72
2023-04-23T12:47:17.798Z,7.72
2023-04-23T12:50:25.365Z,9.40
2023-04-23T12:53:32.559Z,5.53
2023-04-23T12:56:38.045Z,9.13
2023-04-23T12:59:44.196Z,6.05
2023-04-23T13:02:51.191Z,5.67
2023-04-23T13:05:57.930Z,6.12
2023-04-23T13:09:05.591Z,10.68
2023-04-23T13:12:10.558Z,4.72
2023-04-23T13:15:16.377Z,10.20
2023-04-23T13:18:22.635Z,7.60
2023-04-23T13:21:28.964Z,6.12
2023-04-23T13:24:35.706Z,5.62
2023-04-23T13:27:43.616Z,7.90
2023-04-23T13:30:48.993Z,8.90
2023-04-23T13:33:55.483Z,5.37
2023-04-23T13:37:01.509Z,11.63
2023-04-23T13:40:07.654Z,7.90
2023-04-23T13:43:14.155Z,7.72
2023-04-23T13:46:21.608Z,5.80
2023-04-23T13:49:27.390Z,5.85
2023-04-23T13:52:34.669Z,9.55
2023-04-23T13:55:40.273Z,6.95
2023-04-23T13:58:48.596Z,16.77
2023-04-23T14:01:58.119Z,6.05
2023-04-23T14:05:04.675Z,9.25
2023-04-23T14:08:10.424Z,6.75
2023-04-23T14:11:17.088Z,6.78
2023-04-23T14:14:22.007Z,5.72
2023-04-23T14:17:27.615Z,3.83
2023-04-23T14:20:34.578Z,5.00
2023-04-23T14:23:59.476Z,7.00
2023-04-23T14:27:05.771Z,5.12
2023-04-23T14:30:15.468Z,7.30
2023-04-23T14:33:21.002Z,6.95
2023-04-23T14:36:27.493Z,8.50
2023-04-23T14:39:33.196Z,7.83
2023-04-23T14:42:38.088Z,6.22
2023-04-23T14:45:44.914Z,5.60
2023-04-23T14:48:51.667Z,5.75
2023-04-23T14:52:01.105Z,7.05
2023-04-23T14:55:06.501Z,6.50
2023-04-23T14:58:12.944Z,6.40
2023-04-23T15:01:17.975Z,6.08
2023-04-23T15:04:26.464Z,6.47
2023-04-23T15:07:33.044Z,7.37
2023-04-23T15:10:38.115Z,5.70
2023-04-23T15:14:13.103Z,5.47
2023-04-23T15:17:19.238Z,5.50
2023-04-23T15:20:25.989Z,3.65
2023-04-23T15:23:32.615Z,4.45
2023-04-23T15:26:40.843Z,5.37
2023-04-23T15:29:48.774Z,9.20
2023-04-23T15:32:54.714Z,6.42
2023-04-23T15:36:02.917Z,4.75
2023-04-23T15:39:08.144Z,6.72
2023-04-23T15:42:13.136Z,4.22
2023-04-23T15:45:20.992Z,5.78
2023-04-23T15:48:26.640Z,8.83
2023-04-23T15:51:34.787Z,7.70
2023-04-23T15:54:40.519Z,8.80
2023-04-23T15:57:46.367Z,5.70
2023-04-23T16:00:51.557Z,6.30
2023-04-23T16:07:05.950Z,5.72
2023-04-23T16:10:11.810Z,9.90
2023-04-23T16:13:18.837Z,10.35
2023-04-23T16:16:24.219Z,10.25
2023-04-23T16:19:32.214Z,12.13
2023-04-23T16:22:38.733Z,17.07
2023-04-23T16:25:45.037Z,8.13
2023-04-23T16:28:56.377Z,7.62
2023-04-23T16:31:58.105Z,15.88
2023-04-23T16:35:03.599Z,29.00
2023-04-23T16:38:10.186Z,23.85
2023-04-23T16:41:15.630Z,21.50
2023-04-23T16:44:23.720Z,29.48
2023-04-23T16:47:29.560Z,37.75
2023-04-23T16:50:36.159Z,42.58
2023-04-23T16:53:43.187Z,67.85
2023-04-23T16:56:50.872Z,51.35
2023-04-23T16:59:56.287Z,59.23
2023-04-23T17:03:02.475Z,58.15
2023-04-23T17:06:23.450Z,53.60
2023-04-23T17:09:29.498Z,52.17
2023-04-23T17:12:35.900Z,49.53
2023-04-23T17:15:43.186Z,55.70
2023-04-23T17:18:50.756Z,65.67
2023-04-23T17:21:56.291Z,66.28
2023-04-23T17:25:03.269Z,70.52
2023-04-23T17:28:09.283Z,57.67
2023-04-23T17:31:15.196Z,62.13
2023-04-23T17:34:20.802Z,57.20
2023-04-23T17:37:26.128Z,73.90
2023-04-23T17:40:32.154Z,65.17
2023-04-23T17:43:40.575Z,69.22
2023-04-23T17:46:47.817Z,69.10
2023-04-23T17:49:54.147Z,68.90
2023-04-23T17:52:59.184Z,67.50
2023-04-23T17:56:06.294Z,70.10
2023-04-23T17:59:12.096Z,68.57
2023-04-23T18:02:18.748Z,67.17
2023-04-23T18:05:27.485Z,63.80
2023-04-23T18:08:33.608Z,63.35
2023-04-23T18:11:39.352Z,56.18
2023-04-23T18:14:45.161Z,60.38
2023-04-23T18:17:50.989Z,58.15
2023-04-23T18:20:55.834Z,46.92
2023-04-23T18:24:02.195Z,55.88
2023-04-23T18:27:11.195Z,52.88
2023-04-23T18:30:18.472Z,52.17
2023-04-23T18:34:05.414Z,53.23
2023-04-23T18:37:13.314Z,55.43
2023-04-23T18:40:21.602Z,53.23
2023-04-23T18:43:29.496Z,56.18
2023-04-23T18:46:36.278Z,58.87
2023-04-23T18:50:07.259Z,53.20
2023-04-23T18:53:13.281Z,52.15
2023-04-23T18:56:19.415Z,51.23
2023-04-23T18:59:26.306Z,60.12
2023-04-23T19:02:35.954Z,55.95
2023-04-23T19:05:41.266Z,53.63
2023-04-23T19:08:50.124Z,60.05
2023-04-23T19:11:57.026Z,65.97
2023-04-23T19:15:01.972Z,73.72
2023-04-23T19:18:08.629Z,56.77
2023-04-23T19:21:16.430Z,68.50
2023-04-23T19:24:22.014Z,71.77
2023-04-23T19:27:29.570Z,75.25
2023-04-23T19:30:34.891Z,67.53
2023-04-23T19:33:39.988Z,62.80
2023-04-23T19:36:45.642Z,72.75
2023-04-23T19:39:52.062Z,77.08
2023-04-23T19:42:59.774Z,81.37
2023-04-23T19:46:09.133Z,76.33
2023-04-23T19:49:15.614Z,67.90
2023-04-23T19:52:22.532Z,83.25
2023-04-23T19:55:30.575Z,71.50
2023-04-23T19:58:37.653Z,73.52
2023-04-23T20:01:43.899Z,79.90
2023-04-23T20:04:52.304Z,85.87
2023-04-23T20:07:59.717Z,75.92
2023-04-23T20:11:05.911Z,82.37
2023-04-23T20:14:11.203Z,85.57
2023-04-23T20:17:17.659Z,91.65
2023-04-23T20:20:25.147Z,84.15
2023-04-23T20:23:30.816Z,90.92
2023-04-23T20:26:36.406Z,89.13
2023-04-23T20:29:42.146Z,111.40
2023-04-23T20:32:47.559Z,95.92
2023-04-23T20:35:54.944Z,86.25
2023-04-23T20:39:01.462Z,79.92
2023-04-23T20:42:08.112Z,78.52
2023-04-23T20:45:15.460Z,64.97
2023-04-23T20:48:25.732Z,59.95
2023-04-23T20:51:31.205Z,59.33
2023-04-23T20:54:37.177Z,61.18
2023-04-23T20:57:45.649Z,56.28
2023-04-23T21:00:52.658Z,54.40
2023-04-23T21:04:00.565Z,58.63
2023-04-23T21:07:08.775Z,67.67
2023-04-23T21:10:16.550Z,62.35
2023-04-23T21:13:25.307Z,67.50
2023-04-23T21:16:32.009Z,77.30
2023-04-23T21:19:38.364Z,81.67
2023-04-23T21:22:43.448Z,76.50
2023-04-23T21:25:49.683Z,76.85
2023-04-23T21:28:56.157Z,65.75
2023-04-23T21:32:04.520Z,71.17
2023-04-23T21:35:11.277Z,74.82
2023-04-23T21:38:18.780Z,69.22
2023-04-23T21:41:25.771Z,62.50
2023-04-23T21:44:33.517Z,55.05
2023-04-23T21:47:39.292Z,40.20
2023-04-23T21:50:46.801Z,35.40
2023-04-23T21:53:52.900Z,40.52
2023-04-23T21:56:59.365Z,49.18
2023-04-23T22:00:06.336Z,44.53
2023-04-23T22:03:17.619Z,40.43
2023-04-23T22:06:24.126Z,43.45
2023-04-23T22:09:30.447Z,39.92
2023-04-23T22:12:36.970Z,49.10
2023-04-23T22:15:43.448Z,43.73
2023-04-23T22:18:49.372Z,52.38
2023-04-23T22:21:56.876Z,58.75
2023-04-23T22:25:02.246Z,56.15
2023-04-23T22:28:09.360Z,55.48
2023-04-23T22:31:16.255Z,50.20
2023-04-23T22:34:23.244Z,65.70
2023-04-23T22:37:29.406Z,56.70
2023-04-23T22:40:34.942Z,46.63
2023-04-23T22:43:41.206Z,48.70
2023-04-23T22:46:47.563Z,54.48
2023-04-23T22:49:52.827Z,43.35
2023-04-23T22:52:58.925Z,50.28
2023-04-23T22:56:05.616Z,65.67
2023-04-23T22:59:14.781Z,60.52
2023-04-23T23:02:20.506Z,51.37
2023-04-23T23:05:27.050Z,49.55
2023-04-23T23:08:34.175Z,50.90
2023-04-23T23:11:35.044Z,41.98
2023-04-23T23:14:36.278Z,49.80
2023-04-23T23:17:42.287Z,53.40
2023-04-23T23:20:53.575Z,43.38
2023-04-23T23:23:58.312Z,44.63
2023-04-23T23:27:06.513Z,44.75
2023-04-23T23:30:16.860Z,35.43
2023-04-23T23:33:22.811Z,37.33
2023-04-23T23:36:29.671Z,45.65
2023-04-23T23:39:37.915Z,48.78
2023-04-23T23:42:43.505Z,48.65
2023-04-23T23:45:49.710Z,45.28
2023-04-23T23:48:55.952Z,42.67
2023-04-23T23:52:02.367Z,36.93
2023-04-23T23:55:10.231Z,37.58
2023-04-23T23:58:16.612Z,37.60
